createdAt,value
2022-11-17T00:00:53.823Z,101270.11
2022-11-17T00:01:57.164Z,101266.71
2022-11-17T00:03:00.242Z,101265.34
2022-11-17T00:04:03.131Z,101263.36
2022-11-17T00:05:06.144Z,101262.04
2022-11-17T00:06:09.051Z,101263.79
2022-11-17T00:07:12.235Z,101266.73
2022-11-17T00:08:15.252Z,101266.66
2022-11-17T00:09:18.380Z,101264.08
2022-11-17T00:10:21.352Z,101260.87
2022-11-17T00:11:24.228Z,101261.25
2022-11-17T00:12:46.272Z,101263.03
2022-11-17T00:14:07.905Z,101260.22
2022-11-17T00:15:10.801Z,101253.42
2022-11-17T00:16:15.055Z,101250.34
2022-11-17T00:17:17.944Z,101248.53
2022-11-17T00:18:39.601Z,101243.04
2022-11-17T00:20:01.345Z,101244.52
2022-11-17T00:21:20.014Z,101237.20
2022-11-17T00:22:23.374Z,101241.45
2022-11-17T00:23:46.891Z,101242.46
2022-11-17T00:24:50.362Z,101239.77
2022-11-17T00:25:53.207Z,101240.78
2022-11-17T00:27:02.169Z,101237.10
2022-11-17T00:28:04.989Z,101237.50
2022-11-17T00:29:08.058Z,101238.31
2022-11-17T00:30:31.159Z,101237.55
2022-11-17T00:31:53.159Z,101239.23
2022-11-17T00:33:19.149Z,101236.45
2022-11-17T00:34:23.549Z,101236.64
2022-11-17T00:35:26.474Z,101233.70
2022-11-17T00:36:29.324Z,101237.42
2022-11-17T00:37:39.734Z,101234.93
2022-11-17T00:38:42.630Z,101236.20
2022-11-17T00:39:45.733Z,101238.88
2022-11-17T00:40:48.568Z,101239.90
2022-11-17T00:41:51.458Z,101244.23
2022-11-17T00:42:54.502Z,101244.45
2022-11-17T00:43:57.399Z,101246.20
2022-11-17T00:45:00.493Z,101242.85
2022-11-17T00:46:03.310Z,101246.09
2022-11-17T00:47:06.206Z,101245.42
2022-11-17T00:48:09.139Z,101238.96
2022-11-17T00:49:12.379Z,101243.38
2022-11-17T00:50:15.652Z,101244.74
2022-11-17T00:51:19.005Z,101243.86
2022-11-17T00:52:21.873Z,101245.56
2022-11-17T00:53:24.779Z,101249.58
2022-11-17T00:54:27.656Z,101248.95
2022-11-17T00:55:30.824Z,101248.95
2022-11-17T00:56:34.159Z,101250.37
2022-11-17T00:57:36.997Z,101251.95
2022-11-17T00:58:39.860Z,101250.06
2022-11-17T00:59:43.205Z,101246.23
2022-11-17T01:00:48.450Z,101244.24
2022-11-17T01:01:51.618Z,101244.02
2022-11-17T01:02:54.630Z,101244.64
2022-11-17T01:04:05.425Z,101246.59
2022-11-17T01:05:08.400Z,101247.81
2022-11-17T01:06:12.862Z,101245.77
2022-11-17T01:07:16.130Z,101245.33
2022-11-17T01:08:19.269Z,101243.22
2022-11-17T01:09:23.697Z,101244.66
2022-11-17T01:10:26.593Z,101243.18
2022-11-17T01:11:29.671Z,101240.42
2022-11-17T01:12:32.592Z,101240.48
2022-11-17T01:13:36.072Z,101238.92
2022-11-17T01:14:39.359Z,101239.23
2022-11-17T01:15:42.284Z,101244.83
2022-11-17T01:16:45.766Z,101241.02
2022-11-17T01:17:48.735Z,101245.36
2022-11-17T01:18:52.094Z,101242.42
2022-11-17T01:20:07.785Z,101240.26
2022-11-17T01:21:32.561Z,101242.41
2022-11-17T01:22:57.072Z,101244.05
2022-11-17T01:24:23.121Z,101242.66
2022-11-17T01:25:50.264Z,101237.96
2022-11-17T01:27:15.899Z,101236.96
2022-11-17T01:28:40.651Z,101235.52
2022-11-17T01:30:06.294Z,101235.23
2022-11-17T01:31:30.277Z,101239.61
2022-11-17T01:32:37.969Z,101241.48
2022-11-17T01:33:40.645Z,101239.32
2022-11-17T01:34:43.386Z,101236.73
2022-11-17T01:35:46.120Z,101237.52
2022-11-17T01:37:21.092Z,101228.57
2022-11-17T01:38:41.493Z,101226.63
2022-11-17T01:40:05.318Z,101226.60
2022-11-17T01:41:28.417Z,101224.73
2022-11-17T01:42:57.148Z,101221.84
2022-11-17T01:44:38.427Z,101224.84
2022-11-17T01:48:27.672Z,101215.08
2022-11-17T01:49:34.842Z,101219.76
2022-11-17T01:50:39.348Z,101219.42
2022-11-17T01:51:47.431Z,101219.82
2022-11-17T01:52:51.087Z,101218.33
2022-11-17T01:53:59.015Z,101217.34
2022-11-17T01:55:07.070Z,101214.98
2022-11-17T01:58:44.103Z,101218.32
2022-11-17T01:59:49.421Z,101217.31
2022-11-17T02:00:54.429Z,101217.23
2022-11-17T02:01:58.273Z,101220.52
2022-11-17T02:03:01.751Z,101215.75
2022-11-17T02:04:04.731Z,101216.95
2022-11-17T02:05:19.471Z,101218.34
2022-11-17T02:06:28.744Z,101216.34
2022-11-17T02:07:54.874Z,101216.38
2022-11-17T02:09:17.602Z,101214.50
2022-11-17T02:10:39.744Z,101214.31
2022-11-17T02:12:08.639Z,101214.86
2022-11-17T02:13:35.973Z,101213.57
2022-11-17T02:14:58.552Z,101202.88
2022-11-17T02:16:30.189Z,101201.05
2022-11-17T02:17:52.466Z,101200.97
2022-11-17T02:19:15.620Z,101198.40
2022-11-17T02:23:13.531Z,101201.17
2022-11-17T02:24:31.418Z,101198.89
2022-11-17T02:25:43.204Z,101198.59
2022-11-17T02:26:46.141Z,101197.33
2022-11-17T02:28:07.672Z,101197.31
2022-11-17T02:29:20.341Z,101194.73
2022-11-17T02:31:53.520Z,101194.95
2022-11-17T02:33:06.943Z,101194.27
2022-11-17T02:34:28.644Z,101191.61
2022-11-17T02:35:46.958Z,101187.18
2022-11-17T02:36:55.763Z,101190.80
2022-11-17T02:38:07.140Z,101191.41
2022-11-17T02:39:12.477Z,101190.45
2022-11-17T02:40:21.315Z,101194.08
2022-11-17T02:41:29.014Z,101192.38
2022-11-17T02:43:01.254Z,101194.35
2022-11-17T02:44:16.223Z,101187.77
2022-11-17T02:45:22.509Z,101185.99
2022-11-17T02:46:25.854Z,101190.18
2022-11-17T02:47:32.392Z,101189.42
2022-11-17T02:48:38.293Z,101185.60
2022-11-17T02:49:44.402Z,101186.34
2022-11-17T02:50:47.844Z,101183.34
2022-11-17T02:51:52.513Z,101182.19
2022-11-17T02:52:55.777Z,101183.08
2022-11-17T02:54:00.249Z,101182.20
2022-11-17T02:55:05.638Z,101184.05
2022-11-17T02:56:08.909Z,101179.83
2022-11-17T02:57:27.977Z,101181.08
2022-11-17T02:58:31.058Z,101179.12
2022-11-17T02:59:41.459Z,101183.98
2022-11-17T03:00:52.959Z,101183.65
2022-11-17T03:02:05.131Z,101184.15
2022-11-17T03:03:26.906Z,101180.20
2022-11-17T03:04:32.104Z,101179.98
2022-11-17T03:06:00.089Z,101177.47
2022-11-17T03:07:03.192Z,101182.30
2022-11-17T03:08:27.511Z,101180.70
2022-11-17T03:09:38.873Z,101184.05
2022-11-17T03:10:44.488Z,101186.41
2022-11-17T03:12:01.426Z,101185.73
2022-11-17T03:13:10.603Z,101188.13
2022-11-17T03:14:42.623Z,101186.46
2022-11-17T03:15:58.953Z,101186.81
2022-11-17T03:17:06.976Z,101186.29
2022-11-17T03:18:16.250Z,101186.36
2022-11-17T03:19:23.085Z,101186.54
2022-11-17T03:20:34.049Z,101184.22
2022-11-17T03:21:57.124Z,101182.66
2022-11-17T03:23:02.938Z,101179.95
2022-11-17T03:24:23.945Z,101174.86
2022-11-17T03:25:28.560Z,101174.94
2022-11-17T03:26:34.467Z,101173.40
2022-11-17T03:27:39.685Z,101171.10
2022-11-17T03:28:45.287Z,101167.10
2022-11-17T03:29:50.537Z,101171.23
2022-11-17T03:30:54.110Z,101169.54
2022-11-17T03:31:59.078Z,101171.52
2022-11-17T03:33:05.353Z,101172.65
2022-11-17T03:34:13.223Z,101170.73
2022-11-17T03:35:18.813Z,101168.96
2022-11-17T03:36:26.171Z,101172.57
2022-11-17T03:37:31.349Z,101170.23
2022-11-17T03:38:37.502Z,101166.61
2022-11-17T03:39:42.235Z,101165.55
2022-11-17T03:40:46.752Z,101168.77
2022-11-17T03:41:52.252Z,101163.46
2022-11-17T03:42:57.098Z,101166.05
2022-11-17T03:44:01.309Z,101168.20
2022-11-17T03:45:13.472Z,101165.27
2022-11-17T03:46:18.216Z,101166.91
2022-11-17T03:47:24.419Z,101163.48
2022-11-17T03:48:46.153Z,101157.77
2022-11-17T03:49:52.205Z,101159.63
2022-11-17T03:50:55.050Z,101161.84
2022-11-17T03:51:58.052Z,101164.40
2022-11-17T03:53:02.828Z,101164.01
2022-11-17T03:54:06.524Z,101164.60
2022-11-17T03:55:09.686Z,101159.55
2022-11-17T03:56:21.559Z,101162.02
2022-11-17T03:57:27.044Z,101155.20
2022-11-17T03:58:31.411Z,101159.10
2022-11-17T03:59:49.355Z,101160.52
2022-11-17T04:00:53.497Z,101160.62
2022-11-17T04:01:56.555Z,101163.33
2022-11-17T04:02:59.734Z,101160.52
2022-11-17T04:04:02.747Z,101160.16
2022-11-17T04:05:05.932Z,101156.98
2022-11-17T04:06:08.894Z,101155.48
2022-11-17T04:07:11.761Z,101153.06
2022-11-17T04:08:14.796Z,101155.96
2022-11-17T04:09:22.871Z,101153.23
2022-11-17T04:10:27.176Z,101154.90
2022-11-17T04:11:49.251Z,101156.41
2022-11-17T04:13:11.446Z,101151.77
2022-11-17T04:14:33.102Z,101152.54
2022-11-17T04:15:54.531Z,101151.98
2022-11-17T04:16:57.548Z,101155.13
2022-11-17T04:18:00.446Z,101156.97
2022-11-17T04:19:03.356Z,101153.79
2022-11-17T04:20:06.779Z,101155.09
2022-11-17T04:21:09.677Z,101157.77
2022-11-17T04:22:12.532Z,101160.65
2022-11-17T04:23:15.468Z,101159.70
2022-11-17T04:24:18.559Z,101157.55
2022-11-17T04:25:41.548Z,101155.30
2022-11-17T04:27:02.753Z,101154.36
2022-11-17T04:28:24.200Z,101148.44
2022-11-17T04:29:28.470Z,101150.55
2022-11-17T04:30:31.480Z,101148.50
2022-11-17T04:31:34.379Z,101145.61
2022-11-17T04:32:37.275Z,101144.85
2022-11-17T04:33:46.395Z,101141.65
2022-11-17T04:34:49.415Z,101139.65
2022-11-17T04:35:52.414Z,101141.33
2022-11-17T04:36:55.289Z,101140.02
2022-11-17T04:37:58.277Z,101141.09
2022-11-17T04:39:01.321Z,101138.17
2022-11-17T04:40:04.493Z,101140.78
2022-11-17T04:41:27.291Z,101141.13
2022-11-17T04:42:30.306Z,101137.97
2022-11-17T04:43:33.527Z,101137.64
2022-11-17T04:44:36.667Z,101141.67
2022-11-17T04:45:39.593Z,101138.84
2022-11-17T04:46:44.623Z,101142.30
2022-11-17T04:47:47.635Z,101141.27
2022-11-17T04:48:52.002Z,101141.98
2022-11-17T04:49:54.934Z,101145.05
2022-11-17T04:50:57.837Z,101143.08
2022-11-17T04:52:01.208Z,101147.27
2022-11-17T04:53:04.115Z,101147.69
2022-11-17T04:54:07.740Z,101147.41
2022-11-17T04:55:10.613Z,101149.49
2022-11-17T04:56:13.608Z,101152.20
2022-11-17T04:57:16.607Z,101153.86
2022-11-17T04:58:19.445Z,101149.58
2022-11-17T04:59:22.412Z,101154.56
2022-11-17T05:00:25.536Z,101152.89
2022-11-17T05:01:28.969Z,101149.09
2022-11-17T05:02:32.078Z,101148.33
2022-11-17T05:03:35.169Z,101153.48
2022-11-17T05:04:56.245Z,101150.67
2022-11-17T05:05:59.239Z,101144.23
2022-11-17T05:07:02.291Z,101147.70
2022-11-17T05:08:05.422Z,101148.26
2022-11-17T05:09:11.367Z,101146.05
2022-11-17T05:10:15.084Z,101143.64
2022-11-17T05:11:36.653Z,101141.51
2022-11-17T05:12:58.033Z,101139.87
2022-11-17T05:14:01.459Z,101137.66
2022-11-17T05:15:04.581Z,101136.14
2022-11-17T05:16:26.060Z,101138.98
2022-11-17T05:17:29.056Z,101141.06
2022-11-17T05:18:31.903Z,101130.12
2022-11-17T05:19:42.344Z,101136.61
2022-11-17T05:20:45.279Z,101134.33
2022-11-17T05:21:48.421Z,101134.34
2022-11-17T05:23:10.077Z,101130.30
2022-11-17T05:24:14.442Z,101127.89
2022-11-17T05:25:17.421Z,101133.13
2022-11-17T05:26:21.769Z,101132.57
2022-11-17T05:27:26.194Z,101127.95
2022-11-17T05:28:31.079Z,101130.07
2022-11-17T05:29:34.068Z,101128.59
2022-11-17T05:30:37.027Z,101126.58
2022-11-17T05:31:40.059Z,101125.83
2022-11-17T05:32:42.997Z,101128.47
2022-11-17T05:33:46.027Z,101130.59
2022-11-17T05:34:48.894Z,101127.02
2022-11-17T05:35:51.915Z,101128.70
2022-11-17T05:36:54.757Z,101126.89
2022-11-17T05:37:57.565Z,101135.35
2022-11-17T05:39:00.821Z,101129.27
2022-11-17T05:40:04.025Z,101132.31
2022-11-17T05:41:07.248Z,101128.38
2022-11-17T05:42:10.442Z,101130.79
2022-11-17T05:43:13.336Z,101133.98
2022-11-17T05:44:16.272Z,101138.18
2022-11-17T05:45:19.271Z,101140.33
2022-11-17T05:46:23.052Z,101138.32
2022-11-17T05:47:25.986Z,101140.90
2022-11-17T05:48:28.998Z,101141.08
2022-11-17T05:49:31.878Z,101139.84
2022-11-17T05:50:35.879Z,101141.81
2022-11-17T05:51:38.813Z,101139.02
2022-11-17T05:52:41.614Z,101141.46
2022-11-17T05:53:44.515Z,101145.86
2022-11-17T05:54:47.418Z,101141.55
2022-11-17T05:55:50.425Z,101142.78
2022-11-17T05:56:56.712Z,101142.45
2022-11-17T05:58:06.641Z,101141.11
2022-11-17T05:59:09.451Z,101141.20
2022-11-17T06:00:15.204Z,101142.99
2022-11-17T06:01:19.221Z,101146.82
2022-11-17T06:02:25.057Z,101146.88
2022-11-17T06:03:37.529Z,101146.31
2022-11-17T06:04:40.834Z,101147.96
2022-11-17T06:05:44.264Z,101148.09
2022-11-17T06:06:47.817Z,101145.19
2022-11-17T06:07:51.597Z,101146.38
2022-11-17T06:08:54.416Z,101148.48
2022-11-17T06:09:57.400Z,101150.11
2022-11-17T06:11:00.489Z,101150.80
2022-11-17T06:12:06.169Z,101149.02
2022-11-17T06:13:09.701Z,101150.46
2022-11-17T06:14:12.591Z,101156.22
2022-11-17T06:15:15.473Z,101157.20
2022-11-17T06:16:20.708Z,101158.70
2022-11-17T06:17:29.831Z,101158.73
2022-11-17T06:18:41.589Z,101156.88
2022-11-17T06:19:46.847Z,101152.05
2022-11-17T06:20:52.197Z,101153.17
2022-11-17T06:22:11.519Z,101153.56
2022-11-17T06:23:16.109Z,101150.55
2022-11-17T06:24:19.909Z,101152.61
2022-11-17T06:25:23.115Z,101148.71
2022-11-17T06:26:26.379Z,101151.55
2022-11-17T06:27:30.693Z,101148.41
2022-11-17T06:28:34.510Z,101147.35
2022-11-17T06:29:43.684Z,101146.41
2022-11-17T06:30:47.740Z,101152.11
2022-11-17T06:31:50.730Z,101154.60
